Current | Radar | Forecast | Satellite
Updated: 10:35 AM CDT on April 26, 2017
Observed at Kankakee, Illinois
Temperature 25°C
Humidity 51%
Dew Point 14°C
Wind South at 35 km/h
Wind Gust 46 km/h
Pressure 998 hPa (Falling)
Conditions Clear
Visibility 16.1 kilometers
UV 8 out of 16
Clouds Clear (CLR) : -
Yesterday's Maximum 28°C
Yesterday's Minimum 10°C
Yesterday's Cooling Degree Days 1
Sunrise5:55 AM CDT
Sunset7:43 PM CDT
Moon Rise6:21 AM CDT
Moon Set8:05 PM CDT
Moon PhaseMoon Phase
New Moon
Raw METARMETAR KIKK 261535Z AUTO 18019G25KT 10SM CLR 25/14 A2946 RMK AO2 T02510142

Kankakee, IL

Current Radar

Radar Map
Zoom into radar image
Zoom into animated radar image


Click here for Marine Information
Scientific forecaster discussion (NWS)

Units: English | Metric

Find the Weather for any City, State or Zipcode, or Country:

U.S. State List | Severe Weather | Tropical Storms | Ski Conditions
United States | Canada | Central America | South America | Asia | Europe | Australia | Africa | Islands

Weather Underground

© Copyright 2017
The Weather Company, LLC